createdAt,value
2018-08-03T00:00:58.000Z,100948
2018-08-03T00:01:58.000Z,100948
2018-08-03T00:03:58.000Z,100948
2018-08-03T00:04:58.000Z,100950
2018-08-03T00:06:58.000Z,100946
2018-08-03T00:08:58.000Z,100944
2018-08-03T00:09:58.000Z,100952
2018-08-03T00:11:58.000Z,100942
2018-08-03T00:12:58.000Z,100947
2018-08-03T00:14:43.000Z,100946
2018-08-03T00:15:58.000Z,100941
2018-08-03T00:17:43.000Z,100942
2018-08-03T00:18:58.000Z,100943
2018-08-03T00:20:58.000Z,100946
2018-08-03T00:21:58.000Z,100946
2018-08-03T00:23:43.000Z,100947
2018-08-03T00:24:58.000Z,100948
2018-08-03T00:26:58.000Z,100948
2018-08-03T00:27:58.000Z,100949
2018-08-03T00:28:58.000Z,100948
2018-08-03T00:30:58.000Z,100948
2018-08-03T00:32:58.000Z,100946
2018-08-03T00:34:58.000Z,100945
2018-08-03T00:36:58.000Z,100940
2018-08-03T00:37:58.000Z,100940
2018-08-03T00:39:58.000Z,100947
2018-08-03T00:41:58.000Z,100950
2018-08-03T00:42:58.000Z,100942
2018-08-03T00:44:58.000Z,100950
2018-08-03T00:46:58.000Z,100949
2018-08-03T00:48:58.000Z,100943
2018-08-03T00:50:58.000Z,100946
2018-08-03T00:52:43.000Z,100944
2018-08-03T00:53:58.000Z,100942
2018-08-03T00:55:58.000Z,100948
2018-08-03T00:57:58.000Z,100949
2018-08-03T00:58:58.000Z,100948
2018-08-03T00:59:58.000Z,100950
2018-08-03T01:01:58.000Z,100952
2018-08-03T01:02:58.000Z,100952
2018-08-03T01:04:58.000Z,100947
2018-08-03T01:06:58.000Z,100951
2018-08-03T01:08:58.000Z,100955
2018-08-03T01:10:58.000Z,100960
2018-08-03T01:12:43.000Z,100953
2018-08-03T01:13:58.000Z,100952
2018-08-03T01:15:58.000Z,100955
2018-08-03T01:17:43.000Z,100949
2018-08-03T01:19:58.000Z,100950
2018-08-03T01:20:58.000Z,100954
2018-08-03T01:22:58.000Z,100950
2018-08-03T01:24:58.000Z,100951
2018-08-03T01:26:43.000Z,100954
2018-08-03T01:27:58.000Z,100959
2018-08-03T01:28:58.000Z,100960
2018-08-03T01:29:58.000Z,100958
2018-08-03T01:31:43.000Z,100958
2018-08-03T01:32:58.000Z,100956
2018-08-03T01:34:58.000Z,100953
2018-08-03T01:36:58.000Z,100949
2018-08-03T01:37:58.000Z,100949
2018-08-03T01:38:58.000Z,100950
2018-08-03T01:40:43.000Z,100951
2018-08-03T01:41:58.000Z,100951
2018-08-03T01:42:58.000Z,100949
2018-08-03T01:43:58.000Z,100956
2018-08-03T01:45:58.000Z,100957
2018-08-03T01:46:58.000Z,100955
2018-08-03T01:47:58.000Z,100955
2018-08-03T01:49:58.000Z,100958
2018-08-03T01:51:58.000Z,100953
2018-08-03T01:53:27.000Z,100950
2018-08-03T01:54:58.000Z,100946
2018-08-03T01:56:43.000Z,100942
2018-08-03T01:57:43.000Z,100945
2018-08-03T01:58:58.000Z,100943
2018-08-03T02:00:58.000Z,100943
2018-08-03T02:01:58.000Z,100937
2018-08-03T02:03:58.000Z,100943
2018-08-03T02:04:58.000Z,100944
2018-08-03T02:06:58.000Z,100941
2018-08-03T02:08:58.000Z,100940
2018-08-03T02:10:27.000Z,100939
2018-08-03T02:11:58.000Z,100939
2018-08-03T02:12:58.000Z,100934
2018-08-03T02:13:58.000Z,100940
2018-08-03T02:15:58.000Z,100934
2018-08-03T02:16:58.000Z,100937
2018-08-03T02:18:58.000Z,100938
2018-08-03T02:20:58.000Z,100927
2018-08-03T02:21:58.000Z,100933
2018-08-03T02:22:58.000Z,100935
2018-08-03T02:24:58.000Z,100933
2018-08-03T02:25:58.000Z,100930
2018-08-03T02:27:43.000Z,100931
2018-08-03T02:28:58.000Z,100934
2018-08-03T02:29:58.000Z,100935
2018-08-03T02:31:43.000Z,100929
2018-08-03T02:32:58.000Z,100936
2018-08-03T02:34:58.000Z,100936
2018-08-03T02:36:58.000Z,100932
2018-08-03T02:38:58.000Z,100935
2018-08-03T02:40:58.000Z,100931
2018-08-03T02:42:58.000Z,100931
2018-08-03T02:44:43.000Z,100935
2018-08-03T02:45:58.000Z,100936
2018-08-03T02:47:58.000Z,100937
2018-08-03T02:48:58.000Z,100941
2018-08-03T02:50:58.000Z,100939
2018-08-03T02:52:58.000Z,100944
2018-08-03T02:54:58.000Z,100942
2018-08-03T02:56:58.000Z,100945
2018-08-03T02:57:58.000Z,100945
2018-08-03T02:59:58.000Z,100943
2018-08-03T03:01:58.000Z,100942
2018-08-03T03:03:58.000Z,100945
2018-08-03T03:05:58.000Z,100950
2018-08-03T03:06:58.000Z,100948
2018-08-03T03:08:43.000Z,100949
2018-08-03T03:09:58.000Z,100952
2018-08-03T03:10:58.000Z,100953
2018-08-03T03:11:58.000Z,100952
2018-08-03T03:13:58.000Z,100953
2018-08-03T03:15:58.000Z,100945
2018-08-03T03:17:58.000Z,100950
2018-08-03T03:19:58.000Z,100953
2018-08-03T03:21:58.000Z,100953
2018-08-03T03:23:58.000Z,100956
2018-08-03T03:25:58.000Z,100959
2018-08-03T03:27:58.000Z,100957
2018-08-03T03:28:58.000Z,100955
2018-08-03T03:30:43.000Z,100950
2018-08-03T03:31:58.000Z,100954
2018-08-03T03:33:58.000Z,100955
2018-08-03T03:34:58.000Z,100959
2018-08-03T03:35:58.000Z,100960
2018-08-03T03:37:58.000Z,100958
2018-08-03T03:39:58.000Z,100957
2018-08-03T03:41:58.000Z,100958
2018-08-03T03:42:58.000Z,100951
2018-08-03T03:43:58.000Z,100960
2018-08-03T03:45:58.000Z,100962
2018-08-03T03:47:58.000Z,100968
2018-08-03T03:49:58.000Z,100963
2018-08-03T03:51:58.000Z,100959
2018-08-03T03:52:59.000Z,100963
2018-08-03T03:54:59.000Z,100955
2018-08-03T03:56:59.000Z,100960
2018-08-03T03:58:59.000Z,100966
2018-08-03T03:59:59.000Z,100965
2018-08-03T04:01:59.000Z,100959
2018-08-03T04:02:59.000Z,100958
2018-08-03T04:04:28.000Z,100959
2018-08-03T04:05:59.000Z,100954
2018-08-03T04:07:59.000Z,100952
2018-08-03T04:09:59.000Z,100958
2018-08-03T04:11:59.000Z,100958
2018-08-03T04:13:59.000Z,100955
2018-08-03T04:15:59.000Z,100957
2018-08-03T04:16:59.000Z,100953
2018-08-03T04:18:43.000Z,100951
2018-08-03T04:19:59.000Z,100953
2018-08-03T04:20:59.000Z,100953
2018-08-03T04:22:59.000Z,100950
2018-08-03T04:24:59.000Z,100956
2018-08-03T04:26:43.000Z,100951
2018-08-03T04:27:59.000Z,100946
2018-08-03T04:29:59.000Z,100949
2018-08-03T04:31:59.000Z,100949
2018-08-03T04:32:59.000Z,100951
2018-08-03T04:34:43.000Z,100962
2018-08-03T04:35:59.000Z,100966
2018-08-03T04:37:59.000Z,100964
2018-08-03T04:39:59.000Z,100964
2018-08-03T04:40:59.000Z,100965
2018-08-03T04:41:59.000Z,100962
2018-08-03T04:43:59.000Z,100964
2018-08-03T04:45:43.000Z,100962
2018-08-03T04:46:59.000Z,100967
2018-08-03T04:48:59.000Z,100966
2018-08-03T04:49:59.000Z,100966
2018-08-03T04:51:59.000Z,100961
2018-08-03T04:53:43.000Z,100965
2018-08-03T04:54:59.000Z,100968
2018-08-03T04:55:59.000Z,100963
2018-08-03T04:57:43.000Z,100967
2018-08-03T04:58:58.000Z,100963
2018-08-03T05:00:43.000Z,100969
2018-08-03T05:01:58.000Z,100965
2018-08-03T05:02:58.000Z,100971
2018-08-03T05:04:58.000Z,100979
2018-08-03T05:06:58.000Z,100975
2018-08-03T05:08:58.000Z,100975
2018-08-03T05:10:58.000Z,100970
2018-08-03T05:11:58.000Z,100966
2018-08-03T05:13:58.000Z,100966
2018-08-03T05:15:58.000Z,100974
2018-08-03T05:16:58.000Z,100973
2018-08-03T05:18:58.000Z,100974
2018-08-03T05:19:58.000Z,100979
2018-08-03T05:21:58.000Z,100976
2018-08-03T05:23:58.000Z,100977
2018-08-03T05:25:58.000Z,100978
2018-08-03T05:26:58.000Z,100978
2018-08-03T05:28:43.000Z,100971
2018-08-03T05:29:58.000Z,100973
2018-08-03T05:30:58.000Z,100975
2018-08-03T05:32:58.000Z,100975
2018-08-03T05:34:58.000Z,100977
2018-08-03T05:36:58.000Z,100976
2018-08-03T05:37:58.000Z,100982
2018-08-03T05:39:58.000Z,100978
2018-08-03T05:41:58.000Z,100981
2018-08-03T05:42:58.000Z,100979
2018-08-03T05:43:58.000Z,100978
2018-08-03T05:45:58.000Z,100980
2018-08-03T05:47:58.000Z,100985
2018-08-03T05:48:58.000Z,100984
2018-08-03T05:49:58.000Z,100979
2018-08-03T05:51:58.000Z,100979
2018-08-03T05:53:43.000Z,100982
2018-08-03T05:54:58.000Z,100982
2018-08-03T05:56:58.000Z,100979
2018-08-03T05:57:58.000Z,100984
2018-08-03T05:59:58.000Z,100983
2018-08-03T06:01:58.000Z,100988
2018-08-03T06:03:58.000Z,100983
2018-08-03T06:05:43.000Z,100982
2018-08-03T06:06:43.000Z,100986
2018-08-03T06:07:58.000Z,100982
2018-08-03T06:08:58.000Z,100976
2018-08-03T06:10:58.000Z,100974
2018-08-03T06:12:58.000Z,100980
2018-08-03T06:13:58.000Z,100975
2018-08-03T06:15:58.000Z,100976
2018-08-03T06:17:58.000Z,100989
2018-08-03T06:18:58.000Z,100981
2018-08-03T06:20:58.000Z,100983
2018-08-03T06:21:58.000Z,100983
2018-08-03T06:22:58.000Z,100985
2018-08-03T06:24:58.000Z,100983
2018-08-03T06:26:58.000Z,100979
2018-08-03T06:28:58.000Z,100984
2018-08-03T06:29:58.000Z,100984
2018-08-03T06:31:58.000Z,100985
2018-08-03T06:33:58.000Z,100972
2018-08-03T06:34:58.000Z,100979
2018-08-03T06:36:58.000Z,100978
2018-08-03T06:37:58.000Z,100981
2018-08-03T06:39:58.000Z,100981
2018-08-03T06:41:58.000Z,100977
2018-08-03T06:42:58.000Z,100981
2018-08-03T06:43:58.000Z,100981
2018-08-03T06:45:58.000Z,100984
2018-08-03T06:46:58.000Z,100982
2018-08-03T06:48:43.000Z,100983
2018-08-03T06:49:58.000Z,100978
2018-08-03T06:50:58.000Z,100987
2018-08-03T06:52:58.000Z,100982
2018-08-03T06:54:58.000Z,100980
2018-08-03T06:55:58.000Z,100981
2018-08-03T06:57:58.000Z,100981
2018-08-03T06:59:58.000Z,100979
2018-08-03T07:01:43.000Z,100986
2018-08-03T07:02:58.000Z,100981
2018-08-03T07:04:58.000Z,100983
2018-08-03T07:05:58.000Z,100983
2018-08-03T07:07:28.000Z,100978
2018-08-03T07:08:58.000Z,100981
2018-08-03T07:10:58.000Z,100976
2018-08-03T07:11:58.000Z,100974
2018-08-03T07:13:58.000Z,100972
2018-08-03T07:15:58.000Z,100971
2018-08-03T07:17:58.000Z,100974
2018-08-03T07:18:58.000Z,100975
2018-08-03T07:20:43.000Z,100969
2018-08-03T07:21:58.000Z,100976
2018-08-03T07:23:58.000Z,100971
2018-08-03T07:24:58.000Z,100972
2018-08-03T07:26:58.000Z,100980
2018-08-03T07:28:58.000Z,100973
2018-08-03T07:30:58.000Z,100979
2018-08-03T07:32:58.000Z,100974
2018-08-03T07:33:58.000Z,100976
2018-08-03T07:34:58.000Z,100973
2018-08-03T07:36:43.000Z,100976
2018-08-03T07:37:58.000Z,100970
2018-08-03T07:39:43.000Z,100966
2018-08-03T07:40:58.000Z,100971
2018-08-03T07:42:43.000Z,100979
2018-08-03T07:44:58.000Z,100974
2018-08-03T07:46:58.000Z,100976
2018-08-03T07:47:58.000Z,100966
2018-08-03T07:49:58.000Z,100970
2018-08-03T07:50:58.000Z,100965
2018-08-03T07:52:58.000Z,100970
2018-08-03T07:54:58.000Z,100968
2018-08-03T07:56:58.000Z,100972
2018-08-03T07:58:58.000Z,100972
2018-08-03T07:59:58.000Z,100968
2018-08-03T08:01:58.000Z,100972
2018-08-03T08:03:58.000Z,100969
2018-08-03T08:04:58.000Z,100969
2018-08-03T08:06:43.000Z,100967
2018-08-03T08:07:43.000Z,100962
2018-08-03T08:08:58.000Z,100964
2018-08-03T08:10:58.000Z,100965
2018-08-03T08:11:58.000Z,100963
2018-08-03T08:13:58.000Z,100964
2018-08-03T08:15:58.000Z,100967
2018-08-03T08:16:58.000Z,100963
2018-08-03T08:18:58.000Z,100953
2018-08-03T08:20:43.000Z,100951
2018-08-03T08:21:58.000Z,100944
2018-08-03T08:23:58.000Z,100955
2018-08-03T08:24:58.000Z,100950
2018-08-03T08:25:58.000Z,100952
2018-08-03T08:27:43.000Z,100950
2018-08-03T08:28:58.000Z,100947
2018-08-03T08:30:43.000Z,100944
2018-08-03T08:31:58.000Z,100946
2018-08-03T08:32:58.000Z,100945
2018-08-03T08:34:43.000Z,100949
2018-08-03T08:35:58.000Z,100946
2018-08-03T08:37:43.000Z,100944
2018-08-03T08:38:58.000Z,100941
2018-08-03T08:40:58.000Z,100940
2018-08-03T08:42:58.000Z,100940
2018-08-03T08:44:58.000Z,100935
2018-08-03T08:45:58.000Z,100944
2018-08-03T08:47:58.000Z,100931
2018-08-03T08:49:58.000Z,100931
2018-08-03T08:51:43.000Z,100936
2018-08-03T08:52:58.000Z,100933
2018-08-03T08:54:58.000Z,100931
2018-08-03T08:55:58.000Z,100932
2018-08-03T08:57:58.000Z,100929
2018-08-03T08:58:58.000Z,100935
2018-08-03T08:59:58.000Z,100932
2018-08-03T09:01:58.000Z,100923
2018-08-03T09:02:58.000Z,100927
2018-08-03T09:04:58.000Z,100922
2018-08-03T09:06:58.000Z,100925
2018-08-03T09:08:58.000Z,100932
2018-08-03T09:10:58.000Z,100927
2018-08-03T09:12:43.000Z,100931
2018-08-03T09:13:58.000Z,100925
2018-08-03T09:15:58.000Z,100928
2018-08-03T09:16:58.000Z,100920
2018-08-03T09:18:43.000Z,100920
2018-08-03T09:19:43.000Z,100920
2018-08-03T09:20:58.000Z,100912
2018-08-03T09:22:58.000Z,100913
2018-08-03T09:23:58.000Z,100917
2018-08-03T09:25:58.000Z,100917
2018-08-03T09:27:58.000Z,100914
2018-08-03T09:29:58.000Z,100911
2018-08-03T09:31:58.000Z,100913
2018-08-03T09:32:58.000Z,100913
2018-08-03T09:34:58.000Z,100915
2018-08-03T09:36:58.000Z,100912
2018-08-03T09:38:58.000Z,100911
2018-08-03T09:39:58.000Z,100904
2018-08-03T09:41:58.000Z,100905
2018-08-03T09:42:58.000Z,100902
2018-08-03T09:44:58.000Z,100908
2018-08-03T09:46:58.000Z,100905
2018-08-03T09:48:58.000Z,100906
2018-08-03T09:50:58.000Z,100901
2018-08-03T09:52:58.000Z,100898
2018-08-03T09:53:58.000Z,100896
2018-08-03T09:55:43.000Z,100897
2018-08-03T09:56:58.000Z,100901
2018-08-03T09:57:58.000Z,100893
2018-08-03T09:58:58.000Z,100895
2018-08-03T10:00:58.000Z,100893
2018-08-03T10:02:43.000Z,100896
2018-08-03T10:03:58.000Z,100897
2018-08-03T10:05:58.000Z,100894
2018-08-03T10:07:58.000Z,100889
2018-08-03T10:09:58.000Z,100885
2018-08-03T10:11:58.000Z,100886
2018-08-03T10:13:58.000Z,100885
2018-08-03T10:15:58.000Z,100881
2018-08-03T10:16:58.000Z,100881
2018-08-03T10:18:58.000Z,100876
2018-08-03T10:20:43.000Z,100883
2018-08-03T10:21:58.000Z,100876
2018-08-03T10:22:58.000Z,100874
2018-08-03T10:23:58.000Z,100871
2018-08-03T10:25:58.000Z,100876
2018-08-03T10:27:58.000Z,100872
2018-08-03T10:29:58.000Z,100868
2018-08-03T10:31:58.000Z,100865
2018-08-03T10:33:43.000Z,100868
2018-08-03T10:34:58.000Z,100870
2018-08-03T10:36:58.000Z,100865
2018-08-03T10:37:58.000Z,100870
2018-08-03T10:38:58.000Z,100868
2018-08-03T10:40:28.000Z,100870
2018-08-03T10:41:58.000Z,100866
2018-08-03T10:43:58.000Z,100868
2018-08-03T10:45:58.000Z,100865
2018-08-03T10:47:58.000Z,100857
2018-08-03T10:49:58.000Z,100857
2018-08-03T10:51:58.000Z,100852
2018-08-03T10:53:58.000Z,100846
2018-08-03T10:55:43.000Z,100842
2018-08-03T10:56:58.000Z,100842
2018-08-03T10:58:58.000Z,100838
2018-08-03T10:59:58.000Z,100836
2018-08-03T11:01:58.000Z,100842
2018-08-03T11:03:58.000Z,100838
2018-08-03T11:05:58.000Z,100840
2018-08-03T11:07:58.000Z,100828
2018-08-03T11:09:58.000Z,100830
2018-08-03T11:10:58.000Z,100832
2018-08-03T11:12:58.000Z,100831
2018-08-03T11:14:58.000Z,100828
2018-08-03T11:16:58.000Z,100830
2018-08-03T11:18:58.000Z,100833
2018-08-03T11:19:59.000Z,100831
2018-08-03T11:20:59.000Z,100830
2018-08-03T11:22:59.000Z,100828
2018-08-03T11:24:59.000Z,100830
2018-08-03T11:25:59.000Z,100826
2018-08-03T11:27:59.000Z,100827
2018-08-03T11:29:59.000Z,100829
2018-08-03T11:31:59.000Z,100821
2018-08-03T11:33:59.000Z,100823
2018-08-03T11:35:43.000Z,100819
2018-08-03T11:36:59.000Z,100820
2018-08-03T11:38:59.000Z,100816
2018-08-03T11:39:59.000Z,100814
2018-08-03T11:40:59.000Z,100818
2018-08-03T11:42:59.000Z,100810
2018-08-03T11:44:59.000Z,100810
2018-08-03T11:46:59.000Z,100804
2018-08-03T11:48:59.000Z,100809
2018-08-03T11:49:59.000Z,100807
2018-08-03T11:51:59.000Z,100802
2018-08-03T11:53:59.000Z,100806
2018-08-03T11:55:59.000Z,100799
2018-08-03T11:57:59.000Z,100801
2018-08-03T11:59:59.000Z,100800
2018-08-03T12:00:59.000Z,100793
2018-08-03T12:02:59.000Z,100792
2018-08-03T12:04:59.000Z,100794
2018-08-03T12:06:59.000Z,100785
2018-08-03T12:08:59.000Z,100788
2018-08-03T12:10:59.000Z,100792
2018-08-03T12:12:59.000Z,100786
2018-08-03T12:14:59.000Z,100787
2018-08-03T12:15:59.000Z,100781
2018-08-03T12:17:59.000Z,100781
2018-08-03T12:19:43.000Z,100781
2018-08-03T12:20:59.000Z,100772
2018-08-03T12:21:59.000Z,100774
2018-08-03T12:23:58.000Z,100771
2018-08-03T12:25:43.000Z,100769
2018-08-03T12:27:58.000Z,100772
2018-08-03T12:29:58.000Z,100769
2018-08-03T12:30:58.000Z,100768
2018-08-03T12:31:58.000Z,100771
2018-08-03T12:33:58.000Z,100763
2018-08-03T12:35:43.000Z,100765
2018-08-03T12:36:58.000Z,100768
2018-08-03T12:37:58.000Z,100766
2018-08-03T12:39:58.000Z,100758
2018-08-03T12:41:58.000Z,100755
2018-08-03T12:43:43.000Z,100750
2018-08-03T12:44:58.000Z,100750
2018-08-03T12:46:58.000Z,100755
2018-08-03T12:48:58.000Z,100748
2018-08-03T12:50:58.000Z,100750
2018-08-03T12:52:58.000Z,100746
2018-08-03T12:53:58.000Z,100750
2018-08-03T12:55:58.000Z,100745
2018-08-03T12:56:58.000Z,100743
2018-08-03T12:57:58.000Z,100741
2018-08-03T12:59:58.000Z,100736
2018-08-03T13:01:58.000Z,100736
2018-08-03T13:03:58.000Z,100737
2018-08-03T13:05:58.000Z,100734
2018-08-03T13:07:58.000Z,100734
2018-08-03T13:09:43.000Z,100728
2018-08-03T13:10:58.000Z,100734
2018-08-03T13:12:58.000Z,100731
2018-08-03T13:13:58.000Z,100730
2018-08-03T13:15:58.000Z,100724
2018-08-03T13:17:58.000Z,100724
2018-08-03T13:19:43.000Z,100722
2018-08-03T13:20:58.000Z,100726
2018-08-03T13:22:58.000Z,100720
2018-08-03T13:23:58.000Z,100724
2018-08-03T13:25:43.000Z,100719
2018-08-03T13:26:58.000Z,100716
2018-08-03T13:28:58.000Z,100715
2018-08-03T13:30:58.000Z,100710
2018-08-03T13:32:58.000Z,100713
2018-08-03T13:34:43.000Z,100706
2018-08-03T13:35:58.000Z,100707
2018-08-03T13:36:58.000Z,100702
2018-08-03T13:38:58.000Z,100702
2018-08-03T13:39:58.000Z,100703
2018-08-03T13:41:43.000Z,100701
2018-08-03T13:42:58.000Z,100702
2018-08-03T13:43:58.000Z,100697
2018-08-03T13:45:43.000Z,100696
2018-08-03T13:47:58.000Z,100695
2018-08-03T13:49:58.000Z,100693
2018-08-03T13:51:58.000Z,100692
2018-08-03T13:52:58.000Z,100689
2018-08-03T13:54:43.000Z,100691
2018-08-03T13:55:58.000Z,100690
2018-08-03T13:56:58.000Z,100688
2018-08-03T13:58:58.000Z,100685
2018-08-03T14:00:58.000Z,100686
2018-08-03T14:02:43.000Z,100683
2018-08-03T14:03:58.000Z,100680
2018-08-03T14:05:43.000Z,100677
2018-08-03T14:06:58.000Z,100673
2018-08-03T14:07:58.000Z,100673
2018-08-03T14:09:58.000Z,100675
2018-08-03T14:10:58.000Z,100680
2018-08-03T14:12:58.000Z,100670
2018-08-03T14:13:58.000Z,100673
2018-08-03T14:15:58.000Z,100669
2018-08-03T14:17:43.000Z,100669
2018-08-03T14:18:58.000Z,100667
2018-08-03T14:20:58.000Z,100668
2018-08-03T14:22:58.000Z,100666
2018-08-03T14:23:58.000Z,100663
2018-08-03T14:25:58.000Z,100664
2018-08-03T14:27:43.000Z,100659
2018-08-03T14:28:58.000Z,100653
2018-08-03T14:29:58.000Z,100663
2018-08-03T14:31:58.000Z,100651
2018-08-03T14:32:58.000Z,100658
2018-08-03T14:33:58.000Z,100657
2018-08-03T14:35:28.000Z,100652
2018-08-03T14:36:58.000Z,100648
2018-08-03T14:37:58.000Z,100644
2018-08-03T14:39:43.000Z,100639
2018-08-03T14:40:58.000Z,100641
2018-08-03T14:41:58.000Z,100639
2018-08-03T14:42:58.000Z,100639
2018-08-03T14:44:58.000Z,100637
2018-08-03T14:46:58.000Z,100629
2018-08-03T14:47:58.000Z,100626
2018-08-03T14:49:58.000Z,100626
2018-08-03T14:51:43.000Z,100630
2018-08-03T14:52:58.000Z,100629
2018-08-03T14:54:58.000Z,100629
2018-08-03T14:55:58.000Z,100628
2018-08-03T14:57:43.000Z,100632
2018-08-03T14:58:58.000Z,100630
2018-08-03T15:00:43.000Z,100625
2018-08-03T15:01:58.000Z,100624
2018-08-03T15:03:58.000Z,100621
2018-08-03T15:04:58.000Z,100620
2018-08-03T15:06:58.000Z,100615
2018-08-03T15:08:58.000Z,100613
2018-08-03T15:10:58.000Z,100611
2018-08-03T15:12:58.000Z,100610
2018-08-03T15:14:58.000Z,100607
2018-08-03T15:15:58.000Z,100609
2018-08-03T15:17:58.000Z,100612
2018-08-03T15:19:58.000Z,100607
2018-08-03T15:21:58.000Z,100611
2018-08-03T15:23:58.000Z,100601
2018-08-03T15:24:58.000Z,100595
2018-08-03T15:26:58.000Z,100592
2018-08-03T15:27:58.000Z,100596
2018-08-03T15:28:58.000Z,100597
2018-08-03T15:30:58.000Z,100595
2018-08-03T15:32:58.000Z,100593
2018-08-03T15:34:58.000Z,100591
2018-08-03T15:35:58.000Z,100585
2018-08-03T15:37:43.000Z,100581
2018-08-03T15:38:58.000Z,100586
2018-08-03T15:40:58.000Z,100583
2018-08-03T15:42:43.000Z,100586
2018-08-03T15:43:58.000Z,100588
2018-08-03T15:45:58.000Z,100582
2018-08-03T15:47:58.000Z,100578
2018-08-03T15:48:58.000Z,100585
2018-08-03T15:50:58.000Z,100585
2018-08-03T15:51:58.000Z,100589
2018-08-03T15:52:58.000Z,100584
2018-08-03T15:53:58.000Z,100584
2018-08-03T15:55:43.000Z,100585
2018-08-03T15:56:58.000Z,100588
2018-08-03T15:57:58.000Z,100576
2018-08-03T15:58:58.000Z,100578
2018-08-03T16:00:58.000Z,100578
2018-08-03T16:02:58.000Z,100577
2018-08-03T16:04:58.000Z,100577
2018-08-03T16:05:58.000Z,100577
2018-08-03T16:07:58.000Z,100580
2018-08-03T16:08:58.000Z,100576
2018-08-03T16:10:58.000Z,100579
2018-08-03T16:12:58.000Z,100574
2018-08-03T16:13:58.000Z,100574
2018-08-03T16:14:58.000Z,100574
2018-08-03T16:15:58.000Z,100574
2018-08-03T16:17:58.000Z,100569
2018-08-03T16:19:58.000Z,100567
2018-08-03T16:21:58.000Z,100570
2018-08-03T16:23:58.000Z,100566
2018-08-03T16:25:58.000Z,100566
2018-08-03T16:27:58.000Z,100560
2018-08-03T16:28:58.000Z,100564
2018-08-03T16:30:43.000Z,100560
2018-08-03T16:31:58.000Z,100558
2018-08-03T16:32:58.000Z,100558
2018-08-03T16:34:58.000Z,100555
2018-08-03T16:35:58.000Z,100555
2018-08-03T16:37:43.000Z,100555
2018-08-03T16:38:59.000Z,100552
2018-08-03T16:40:59.000Z,100554
2018-08-03T16:42:59.000Z,100553
2018-08-03T16:43:59.000Z,100553
2018-08-03T16:44:59.000Z,100552
2018-08-03T16:46:43.000Z,100553
2018-08-03T16:47:59.000Z,100548
2018-08-03T16:49:59.000Z,100549
2018-08-03T16:50:59.000Z,100547
2018-08-03T16:52:43.000Z,100545
2018-08-03T16:53:59.000Z,100550
2018-08-03T16:55:59.000Z,100545
2018-08-03T16:57:43.000Z,100551
2018-08-03T16:58:59.000Z,100548
2018-08-03T16:59:59.000Z,100557
2018-08-03T17:01:59.000Z,100548
2018-08-03T17:03:59.000Z,100551
2018-08-03T17:05:59.000Z,100554
2018-08-03T17:07:59.000Z,100553
2018-08-03T17:09:28.000Z,100554
2018-08-03T17:10:59.000Z,100548
2018-08-03T17:12:59.000Z,100556
2018-08-03T17:14:59.000Z,100550
2018-08-03T17:16:59.000Z,100551
2018-08-03T17:17:59.000Z,100545
2018-08-03T17:19:59.000Z,100541
2018-08-03T17:21:43.000Z,100547
2018-08-03T17:22:59.000Z,100552
2018-08-03T17:23:59.000Z,100546
2018-08-03T17:24:59.000Z,100544
2018-08-03T17:26:59.000Z,100548
2018-08-03T17:27:59.000Z,100549
2018-08-03T17:29:59.000Z,100546
2018-08-03T17:30:59.000Z,100543
2018-08-03T17:32:59.000Z,100544
2018-08-03T17:33:59.000Z,100548
2018-08-03T17:35:43.000Z,100547
2018-08-03T17:36:59.000Z,100540
2018-08-03T17:37:59.000Z,100543
2018-08-03T17:39:59.000Z,100550
2018-08-03T17:41:43.000Z,100544
2018-08-03T17:42:58.000Z,100548
2018-08-03T17:44:58.000Z,100545
2018-08-03T17:46:58.000Z,100546
2018-08-03T17:48:58.000Z,100545
2018-08-03T17:49:58.000Z,100550
2018-08-03T17:51:58.000Z,100552
2018-08-03T17:53:58.000Z,100549
2018-08-03T17:55:43.000Z,100551
2018-08-03T17:56:58.000Z,100552
2018-08-03T17:58:58.000Z,100552
2018-08-03T18:00:58.000Z,100548
2018-08-03T18:01:58.000Z,100551
2018-08-03T18:02:58.000Z,100550
2018-08-03T18:04:58.000Z,100554
2018-08-03T18:06:43.000Z,100556
2018-08-03T18:07:58.000Z,100555
2018-08-03T18:08:58.000Z,100557
2018-08-03T18:10:58.000Z,100561
2018-08-03T18:12:58.000Z,100554
2018-08-03T18:14:58.000Z,100561
2018-08-03T18:16:58.000Z,100559
2018-08-03T18:18:58.000Z,100561
2018-08-03T18:19:58.000Z,100563
2018-08-03T18:21:58.000Z,100568
2018-08-03T18:23:58.000Z,100564
2018-08-03T18:24:58.000Z,100564
2018-08-03T18:26:58.000Z,100560
2018-08-03T18:28:58.000Z,100562
2018-08-03T18:30:58.000Z,100562
2018-08-03T18:32:58.000Z,100567
2018-08-03T18:34:58.000Z,100563
2018-08-03T18:35:58.000Z,100564
2018-08-03T18:37:58.000Z,100560
2018-08-03T18:39:58.000Z,100562
2018-08-03T18:41:58.000Z,100558
2018-08-03T18:43:58.000Z,100566
2018-08-03T18:44:58.000Z,100567
2018-08-03T18:46:58.000Z,100564
2018-08-03T18:48:58.000Z,100564
2018-08-03T18:50:43.000Z,100566
2018-08-03T18:51:58.000Z,100566
2018-08-03T18:53:58.000Z,100565
2018-08-03T18:55:58.000Z,100568
2018-08-03T18:57:58.000Z,100565
2018-08-03T18:59:58.000Z,100569
2018-08-03T19:01:58.000Z,100565
2018-08-03T19:03:58.000Z,100569
2018-08-03T19:04:58.000Z,100571
2018-08-03T19:06:58.000Z,100562
2018-08-03T19:08:58.000Z,100569
2018-08-03T19:10:28.000Z,100570
2018-08-03T19:11:58.000Z,100568
2018-08-03T19:12:58.000Z,100571
2018-08-03T19:14:58.000Z,100570
2018-08-03T19:15:58.000Z,100576
2018-08-03T19:17:58.000Z,100575
2018-08-03T19:19:58.000Z,100575
2018-08-03T19:20:58.000Z,100576
2018-08-03T19:22:43.000Z,100575
2018-08-03T19:23:58.000Z,100578
2018-08-03T19:24:58.000Z,100573
2018-08-03T19:26:58.000Z,100580
2018-08-03T19:28:58.000Z,100582
2018-08-03T19:30:58.000Z,100581
2018-08-03T19:32:58.000Z,100584
2018-08-03T19:33:58.000Z,100590
2018-08-03T19:35:58.000Z,100589
2018-08-03T19:36:58.000Z,100591
2018-08-03T19:38:58.000Z,100594
2018-08-03T19:39:58.000Z,100595
2018-08-03T19:41:28.000Z,100597
2018-08-03T19:42:58.000Z,100597
2018-08-03T19:44:43.000Z,100598
2018-08-03T19:45:58.000Z,100599
2018-08-03T19:47:28.000Z,100592
2018-08-03T19:48:58.000Z,100599
2018-08-03T19:50:58.000Z,100598
2018-08-03T19:51:58.000Z,100597
2018-08-03T19:52:58.000Z,100603
2018-08-03T19:54:58.000Z,100597
2018-08-03T19:56:58.000Z,100602
2018-08-03T19:58:58.000Z,100605
2018-08-03T19:59:58.000Z,100602
2018-08-03T20:01:58.000Z,100601
2018-08-03T20:03:43.000Z,100606
2018-08-03T20:04:58.000Z,100605
2018-08-03T20:06:58.000Z,100604
2018-08-03T20:08:58.000Z,100612
2018-08-03T20:10:43.000Z,100616